CYAW/YAW METAR and TAF weather

Enter ICAO airport designator
Station Type Date Time Source
CYAW METAR 2018/12/10 20:00 UTC NOAA

CYAW 102000Z 32010KT 15SM FEW025 M04/M09 A2993 RMK CU1 DA-2179FT SLP137


Station Type Date Time Source
CYAW Decoded METAR 2018/12/10 20:00 UTC NOAA

Shearwater, N. S., Canada (CYAW) 44-38N 063-30W 51M
Dec 10, 2018 - 03:00 PM EST / 2018.12.10 2000 UTC
Wind: from the NW (320 degrees) at 12 MPH (10 KT):0
Visibility: 15 mile(s):0
Sky conditions: mostly clear
Temperature: 24 F (-4 C)
Windchill: 12 F (-11 C):1
Dew Point: 15 F (-9 C)
Relative Humidity: 68%
Pressure (altimeter): 29.93 in. Hg (1013 hPa)
ob: CYAW 102000Z 32010KT 15SM FEW025 M04/M09 A2993 RMK CU1 DA-2179FT SLP137
cycle: 20

Station Type Date Time Source
CYAW TAF 2018/12/10 18:35 UTC NOAA

TAF CYAW 101730Z 1018/1106 32010G20KT P6SM FEW015 BKN025
TEMPO 1018/1024 P6SM -SHSN BKN020
FM110000 32008G18KT P6SM BKN025
RMK NXT FCST BY 110000Z


Example: see airport list